createdAt,value
2018-03-24T00:01:59.748Z,17.13
2018-03-24T00:04:29.135Z,17.87
2018-03-24T00:06:57.267Z,16.77
2018-03-24T00:09:26.237Z,16.83
2018-03-24T00:11:54.411Z,17.17
2018-03-24T00:14:22.568Z,16.60
2018-03-24T00:16:50.798Z,16.80
2018-03-24T00:19:19.718Z,16.20
2018-03-24T00:21:48.155Z,16.17
2018-03-24T00:24:17.077Z,17.10
2018-03-24T00:26:45.451Z,17.70
2018-03-24T00:29:13.606Z,16.80
2018-03-24T00:31:42.724Z,16.53
2018-03-24T00:34:10.865Z,16.07
2018-03-24T00:36:39.939Z,16.73
2018-03-24T00:39:08.889Z,16.53
2018-03-24T00:41:37.132Z,15.87
2018-03-24T00:44:06.180Z,15.53
2018-03-24T00:46:34.317Z,16.07
2018-03-24T00:49:03.432Z,16.17
2018-03-24T00:51:31.692Z,16.13
2018-03-24T00:53:59.968Z,15.53
2018-03-24T00:56:28.888Z,16.23
2018-03-24T00:58:57.126Z,16.37
2018-03-24T01:01:26.038Z,16.00
2018-03-24T01:03:54.284Z,15.80
2018-03-24T01:06:23.221Z,15.93
2018-03-24T01:08:51.372Z,16.47
2018-03-24T01:11:19.537Z,16.43
2018-03-24T01:13:47.703Z,15.90
2018-03-24T01:16:15.975Z,15.83
2018-03-24T01:18:44.286Z,16.30
2018-03-24T01:21:12.427Z,16.60
2018-03-24T01:23:40.607Z,16.37
2018-03-24T01:26:08.876Z,16.67
2018-03-24T01:28:37.917Z,15.90
2018-03-24T01:31:06.057Z,16.33
2018-03-24T01:33:34.321Z,15.70
2018-03-24T01:36:03.252Z,15.80
2018-03-24T01:38:31.595Z,16.30
2018-03-24T01:40:59.760Z,15.60
2018-03-24T01:43:28.717Z,16.00
2018-03-24T01:45:56.856Z,15.90
2018-03-24T01:48:25.003Z,16.83
2018-03-24T01:50:54.133Z,16.43
2018-03-24T01:53:30.798Z,15.93
2018-03-24T01:55:58.949Z,15.37
2018-03-24T01:58:27.232Z,15.70
2018-03-24T02:00:55.494Z,15.93
2018-03-24T02:03:23.888Z,16.03
2018-03-24T02:05:52.034Z,16.27
2018-03-24T02:08:20.667Z,16.10
2018-03-24T02:10:49.383Z,15.80
2018-03-24T02:13:17.556Z,16.60
2018-03-24T02:15:46.444Z,16.00
2018-03-24T02:18:14.622Z,16.63
2018-03-24T02:20:42.797Z,16.27
2018-03-24T02:23:10.963Z,17.17
2018-03-24T02:25:39.113Z,15.77
2018-03-24T02:28:07.268Z,16.03
2018-03-24T02:30:35.426Z,16.87
2018-03-24T02:33:04.020Z,16.87
2018-03-24T02:35:32.158Z,16.37
2018-03-24T02:38:00.452Z,16.50
2018-03-24T02:40:29.547Z,17.17
2018-03-24T02:42:58.463Z,16.47
2018-03-24T02:45:26.604Z,17.60
2018-03-24T02:47:54.921Z,17.63
2018-03-24T02:50:23.066Z,17.60
2018-03-24T02:52:51.974Z,17.07
2018-03-24T02:55:20.144Z,17.73
2018-03-24T02:57:48.302Z,17.60
2018-03-24T03:00:17.229Z,17.63
2018-03-24T03:02:45.447Z,15.70
2018-03-24T03:05:13.652Z,17.07
2018-03-24T03:07:42.554Z,17.50
2018-03-24T03:10:10.735Z,17.53
2018-03-24T03:12:39.057Z,17.30
2018-03-24T03:15:07.216Z,17.30
2018-03-24T03:17:35.400Z,16.63
2018-03-24T03:20:03.599Z,17.13
2018-03-24T03:22:31.918Z,16.50
2018-03-24T03:25:00.935Z,17.43
2018-03-24T03:27:29.245Z,17.50
2018-03-24T03:29:57.524Z,17.73
2018-03-24T03:32:25.694Z,17.53
2018-03-24T03:34:53.872Z,16.50
2018-03-24T03:37:22.032Z,17.33
2018-03-24T03:39:50.219Z,17.03
2018-03-24T03:42:19.376Z,18.70
2018-03-24T03:44:47.534Z,17.50
2018-03-24T03:47:15.691Z,17.23
2018-03-24T03:49:43.966Z,17.33
2018-03-24T03:52:12.230Z,16.47
2018-03-24T03:54:41.621Z,18.07
2018-03-24T03:57:10.524Z,16.83
2018-03-24T03:59:38.682Z,16.87
2018-03-24T04:02:07.140Z,16.60
2018-03-24T04:04:35.649Z,17.03
2018-03-24T04:07:04.558Z,16.67
2018-03-24T04:09:32.710Z,15.37
2018-03-24T04:12:01.657Z,15.90
2018-03-24T04:14:29.812Z,15.17
2018-03-24T04:16:57.961Z,15.37
2018-03-24T04:19:26.757Z,14.90
2018-03-24T04:21:54.910Z,15.30
2018-03-24T04:24:23.614Z,15.40
2018-03-24T04:26:52.534Z,14.97
2018-03-24T04:29:20.674Z,15.83
2018-03-24T04:31:49.641Z,15.30
2018-03-24T04:34:17.803Z,15.50
2018-03-24T04:36:46.097Z,14.80
2018-03-24T04:39:15.041Z,16.13
2018-03-24T04:41:43.204Z,14.73
2018-03-24T04:44:11.355Z,15.37
2018-03-24T04:46:40.268Z,15.57
2018-03-24T04:49:09.622Z,15.80
2018-03-24T04:51:37.902Z,15.83
2018-03-24T04:54:06.243Z,16.87
2018-03-24T04:56:34.399Z,15.87
2018-03-24T04:59:02.585Z,16.30
2018-03-24T05:01:31.031Z,16.43
2018-03-24T05:04:00.094Z,15.73
2018-03-24T05:06:28.658Z,15.60
2018-03-24T05:08:56.846Z,16.27
2018-03-24T05:11:25.133Z,15.93
2018-03-24T05:13:53.310Z,16.30
2018-03-24T05:16:21.484Z,15.43
2018-03-24T05:18:49.774Z,15.80
2018-03-24T05:21:18.689Z,15.40
2018-03-24T05:23:47.027Z,14.93
2018-03-24T05:26:15.241Z,15.63
2018-03-24T05:28:43.869Z,15.90
2018-03-24T05:31:12.052Z,15.93
2018-03-24T05:33:40.314Z,15.87
2018-03-24T05:36:09.247Z,15.77
2018-03-24T05:38:37.452Z,15.93
2018-03-24T05:41:05.670Z,15.90
2018-03-24T05:43:33.847Z,15.13
2018-03-24T05:46:02.353Z,16.03
2018-03-24T05:48:31.397Z,16.10
2018-03-24T05:51:02.030Z,14.53
2018-03-24T05:53:30.179Z,15.60
2018-03-24T05:55:58.355Z,15.70
2018-03-24T05:58:26.621Z,15.73
2018-03-24T06:00:54.880Z,14.83
2018-03-24T06:03:23.880Z,14.30
2018-03-24T06:05:53.172Z,14.80
2018-03-24T06:08:22.079Z,13.87
2018-03-24T06:10:50.279Z,13.63
2018-03-24T06:13:18.533Z,14.70
2018-03-24T06:15:47.243Z,14.73
2018-03-24T06:18:15.460Z,13.50
2018-03-24T06:20:43.668Z,14.70
2018-03-24T06:23:11.825Z,13.63
2018-03-24T06:25:40.960Z,14.10
2018-03-24T06:28:09.501Z,14.10
2018-03-24T06:30:53.398Z,13.97
2018-03-24T06:33:21.555Z,14.00
2018-03-24T06:35:52.223Z,14.03
2018-03-24T06:38:20.377Z,14.63
2018-03-24T06:40:49.131Z,13.97
2018-03-24T06:43:17.521Z,13.13
2018-03-24T06:45:45.678Z,14.10
2018-03-24T06:48:13.854Z,14.13
2018-03-24T06:50:42.126Z,14.53
2018-03-24T06:53:10.387Z,14.43
2018-03-24T06:55:39.568Z,14.13
2018-03-24T06:58:07.738Z,14.53
2018-03-24T07:00:35.936Z,14.20
2018-03-24T07:03:04.167Z,14.00
2018-03-24T07:05:32.580Z,14.33
2018-03-24T07:08:01.655Z,14.30
2018-03-24T07:10:29.959Z,14.30
2018-03-24T07:12:58.173Z,14.03
2018-03-24T07:15:26.356Z,14.40
2018-03-24T07:17:54.803Z,15.97
2018-03-24T07:20:26.735Z,13.20
2018-03-24T07:22:55.678Z,13.07
2018-03-24T07:25:23.837Z,14.00
2018-03-24T07:27:51.972Z,13.73
2018-03-24T07:30:20.146Z,13.43
2018-03-24T07:32:48.305Z,13.33
2018-03-24T07:35:16.465Z,12.83
2018-03-24T07:37:44.621Z,12.57
2018-03-24T07:40:12.861Z,12.97
2018-03-24T07:42:41.022Z,12.13
2018-03-24T07:45:09.218Z,12.47
2018-03-24T07:47:38.250Z,12.83
2018-03-24T07:50:06.398Z,13.97
2018-03-24T07:52:35.126Z,12.90
2018-03-24T07:55:03.294Z,12.77
2018-03-24T07:57:31.471Z,12.70
2018-03-24T07:59:59.747Z,12.90
2018-03-24T08:02:28.983Z,12.30
2018-03-24T08:04:57.912Z,14.25
2018-03-24T08:07:26.193Z,13.47
2018-03-24T08:09:54.327Z,13.40
2018-03-24T08:12:23.244Z,13.50
2018-03-24T08:14:51.403Z,12.23
2018-03-24T08:17:19.638Z,13.57
2018-03-24T08:19:47.794Z,12.77
2018-03-24T08:22:16.111Z,12.83
2018-03-24T08:24:45.748Z,12.50
2018-03-24T08:27:13.896Z,12.87
2018-03-24T08:29:42.088Z,12.80
2018-03-24T08:32:10.508Z,11.93
2018-03-24T08:34:38.713Z,12.40
2018-03-24T08:37:06.891Z,12.37
2018-03-24T08:39:35.995Z,11.87
2018-03-24T08:42:04.926Z,12.10
2018-03-24T08:44:33.153Z,11.10
2018-03-24T08:47:02.082Z,11.90
2018-03-24T08:49:30.242Z,10.53
2018-03-24T08:51:58.469Z,11.70
2018-03-24T08:54:26.646Z,11.70
2018-03-24T08:56:56.327Z,10.97
2018-03-24T08:59:24.699Z,10.97
2018-03-24T09:01:53.047Z,10.97
2018-03-24T09:04:21.356Z,10.90
2018-03-24T09:06:49.591Z,10.87
2018-03-24T09:09:19.075Z,10.47
2018-03-24T09:11:48.769Z,10.23
2018-03-24T09:14:17.078Z,10.20
2018-03-24T09:16:46.896Z,10.97
2018-03-24T09:19:15.639Z,9.70
2018-03-24T09:21:43.810Z,9.97
2018-03-24T09:24:12.880Z,10.20
2018-03-24T09:26:41.042Z,9.43
2018-03-24T09:29:09.298Z,8.77
2018-03-24T09:31:38.504Z,8.97
2018-03-24T09:34:07.695Z,9.00
2018-03-24T09:36:36.682Z,8.30
2018-03-24T09:39:05.595Z,8.00
2018-03-24T09:41:33.761Z,8.57
2018-03-24T09:44:02.689Z,7.97
2018-03-24T09:46:30.991Z,8.60
2018-03-24T09:48:59.147Z,8.20
2018-03-24T09:51:27.607Z,7.93
2018-03-24T09:53:55.763Z,8.17
2018-03-24T09:56:23.946Z,8.40
2018-03-24T09:58:52.140Z,8.50
2018-03-24T10:01:20.435Z,8.07
2018-03-24T10:03:48.759Z,9.73
2018-03-24T10:06:16.941Z,9.70
2018-03-24T10:08:45.838Z,8.97
2018-03-24T10:11:14.011Z,9.23
2018-03-24T10:13:42.200Z,10.35
2018-03-24T10:16:10.390Z,8.57
2018-03-24T10:18:38.543Z,9.20
2018-03-24T10:21:07.546Z,8.97
2018-03-24T10:23:59.412Z,9.10
2018-03-24T10:26:27.568Z,9.47
2018-03-24T10:28:55.735Z,9.60
2018-03-24T10:31:23.954Z,9.20
2018-03-24T10:33:58.504Z,9.10
2018-03-24T10:36:27.369Z,9.13
2018-03-24T10:38:56.716Z,9.20
2018-03-24T10:41:24.896Z,9.27
2018-03-24T10:43:53.868Z,9.23
2018-03-24T10:46:22.031Z,9.00
2018-03-24T10:48:50.343Z,9.30
2018-03-24T10:51:18.555Z,8.87
2018-03-24T10:53:47.549Z,9.10
2018-03-24T10:56:15.912Z,8.60
2018-03-24T10:58:44.070Z,8.80
2018-03-24T11:01:14.150Z,8.73
2018-03-24T11:03:42.400Z,9.33
2018-03-24T11:06:11.305Z,9.07
2018-03-24T11:08:39.832Z,8.83
2018-03-24T11:11:08.015Z,10.33
2018-03-24T11:13:36.183Z,9.80
2018-03-24T11:16:04.479Z,8.33
2018-03-24T11:18:32.633Z,9.30
2018-03-24T11:21:01.668Z,9.27
2018-03-24T11:23:30.602Z,9.47
2018-03-24T11:25:58.792Z,10.00
2018-03-24T11:28:26.940Z,9.20
2018-03-24T11:30:55.185Z,10.03
2018-03-24T11:33:23.370Z,9.57
2018-03-24T11:35:51.623Z,10.33
2018-03-24T11:38:22.894Z,9.10
2018-03-24T11:40:51.054Z,9.97
2018-03-24T11:43:20.005Z,10.67
2018-03-24T11:45:48.153Z,10.13
2018-03-24T11:48:16.307Z,10.03
2018-03-24T11:50:44.469Z,10.57
2018-03-24T11:53:13.655Z,13.27
2018-03-24T11:55:43.066Z,11.07
2018-03-24T11:58:12.105Z,10.87
2018-03-24T12:00:40.276Z,10.93
2018-03-24T12:03:08.538Z,10.97
2018-03-24T12:05:36.759Z,12.17
2018-03-24T12:08:06.603Z,12.30
2018-03-24T12:10:34.808Z,12.30
2018-03-24T12:13:03.078Z,11.47
2018-03-24T12:15:31.347Z,10.97
2018-03-24T12:17:59.520Z,11.00
2018-03-24T12:20:27.673Z,11.50
2018-03-24T12:22:56.726Z,12.07
2018-03-24T12:25:24.902Z,12.10
2018-03-24T12:27:53.055Z,11.43
2018-03-24T12:30:21.206Z,12.53
2018-03-24T12:32:49.398Z,12.43
2018-03-24T12:35:21.570Z,12.00
2018-03-24T12:37:49.882Z,12.13
2018-03-24T12:40:18.201Z,12.50
2018-03-24T12:42:47.322Z,12.53
2018-03-24T12:45:15.510Z,11.70
2018-03-24T12:47:44.217Z,11.87
2018-03-24T12:50:12.384Z,12.33
2018-03-24T12:52:40.546Z,13.90
2018-03-24T12:55:08.827Z,13.33
2018-03-24T12:57:37.139Z,13.90
2018-03-24T13:00:05.300Z,15.13
2018-03-24T13:02:34.230Z,15.00
2018-03-24T13:05:02.579Z,13.57
2018-03-24T13:07:31.532Z,14.33
2018-03-24T13:09:59.715Z,14.23
2018-03-24T13:12:27.886Z,14.57
2018-03-24T13:14:56.132Z,14.57
2018-03-24T13:17:24.473Z,12.80
2018-03-24T13:19:53.395Z,14.03
2018-03-24T13:22:22.499Z,13.83
2018-03-24T13:24:50.703Z,14.93
2018-03-24T13:27:19.825Z,14.40
2018-03-24T13:29:48.957Z,14.77
2018-03-24T13:32:17.309Z,13.70
2018-03-24T13:34:46.250Z,15.43
2018-03-24T13:37:14.421Z,14.10
2018-03-24T13:39:42.577Z,14.10
2018-03-24T13:42:10.724Z,13.43
2018-03-24T13:44:39.021Z,13.80
2018-03-24T13:47:07.908Z,14.33
2018-03-24T13:49:36.092Z,13.53
2018-03-24T13:52:04.302Z,14.77
2018-03-24T13:54:32.458Z,14.00
2018-03-24T13:57:01.374Z,14.27
2018-03-24T13:59:30.356Z,14.03
2018-03-24T14:01:58.515Z,14.77
2018-03-24T14:04:27.586Z,14.30
2018-03-24T14:06:55.816Z,14.83
2018-03-24T14:09:23.971Z,13.70
2018-03-24T14:11:52.134Z,14.20
2018-03-24T14:14:20.294Z,13.33
2018-03-24T14:16:48.446Z,14.63
2018-03-24T14:19:16.753Z,13.20
2018-03-24T14:21:45.115Z,13.33
2018-03-24T14:24:13.353Z,13.27
2018-03-24T14:26:42.277Z,13.20
2018-03-24T14:29:10.522Z,13.67
2018-03-24T14:31:39.610Z,13.63
2018-03-24T14:34:08.556Z,13.87
2018-03-24T14:36:36.712Z,14.67
2018-03-24T14:39:04.889Z,13.57
2018-03-24T14:41:33.032Z,13.07
2018-03-24T14:44:02.061Z,13.50
2018-03-24T14:46:30.208Z,12.77
2018-03-24T14:48:58.346Z,13.07
2018-03-24T14:51:26.522Z,12.90
2018-03-24T14:53:56.267Z,12.47
2018-03-24T14:56:24.441Z,12.50
2018-03-24T14:58:52.631Z,13.40
2018-03-24T15:01:20.867Z,13.07
2018-03-24T15:03:49.796Z,13.20
2018-03-24T15:06:17.974Z,13.23
2018-03-24T15:08:46.998Z,12.57
2018-03-24T15:11:15.177Z,12.87
2018-03-24T15:13:43.449Z,12.97
2018-03-24T15:16:11.625Z,13.57
2018-03-24T15:18:39.911Z,13.30
2018-03-24T15:21:08.089Z,14.00
2018-03-24T15:23:36.245Z,14.03
2018-03-24T15:26:04.408Z,13.80
2018-03-24T15:28:32.581Z,14.23
2018-03-24T15:31:12.792Z,13.97
2018-03-24T15:33:53.660Z,13.53
2018-03-24T15:36:34.355Z,13.30
2018-03-24T15:39:02.662Z,13.40
2018-03-24T15:41:30.835Z,14.13
2018-03-24T15:43:59.175Z,14.20
2018-03-24T15:46:27.483Z,13.83
2018-03-24T15:48:55.774Z,14.27
2018-03-24T15:51:24.714Z,13.67
2018-03-24T15:53:52.881Z,13.53
2018-03-24T15:56:21.865Z,13.93
2018-03-24T15:58:50.802Z,13.00
2018-03-24T16:01:18.985Z,13.40
2018-03-24T16:03:47.137Z,13.33
2018-03-24T16:06:16.572Z,14.33
2018-03-24T16:08:44.732Z,13.47
2018-03-24T16:11:13.076Z,12.70
2018-03-24T16:13:41.447Z,13.30
2018-03-24T16:16:09.629Z,13.33
2018-03-24T16:18:37.810Z,13.20
2018-03-24T16:21:06.076Z,12.40
2018-03-24T16:23:34.252Z,12.30
2018-03-24T16:26:02.392Z,13.30
2018-03-24T16:28:30.631Z,12.70
2018-03-24T16:30:58.817Z,14.03
2018-03-24T16:33:26.968Z,13.80
2018-03-24T16:35:55.270Z,14.23
2018-03-24T16:38:23.517Z,13.90
2018-03-24T16:40:51.714Z,13.80
2018-03-24T16:43:19.978Z,12.97
2018-03-24T16:45:48.355Z,12.73
2018-03-24T16:48:16.792Z,12.87
2018-03-24T16:50:45.868Z,13.57
2018-03-24T16:53:14.914Z,12.67
2018-03-24T16:55:43.267Z,12.80
2018-03-24T16:58:12.235Z,13.07
2018-03-24T17:00:40.417Z,13.23
2018-03-24T17:03:09.339Z,13.43
2018-03-24T17:05:37.493Z,11.60
2018-03-24T17:08:06.531Z,12.23
2018-03-24T17:10:34.781Z,12.63
2018-03-24T17:13:02.930Z,12.50
2018-03-24T17:15:31.845Z,14.77
2018-03-24T17:18:00.026Z,12.40
2018-03-24T17:20:28.222Z,13.00
2018-03-24T17:22:56.541Z,12.93
2018-03-24T17:25:25.765Z,13.27
2018-03-24T17:27:54.009Z,13.07
2018-03-24T17:30:22.290Z,13.50
2018-03-24T17:32:51.200Z,13.70
2018-03-24T17:35:19.332Z,13.30
2018-03-24T17:37:49.040Z,13.50
2018-03-24T17:40:17.190Z,13.17
2018-03-24T17:42:45.395Z,13.20
2018-03-24T17:45:13.724Z,14.77
2018-03-24T17:47:42.082Z,14.60
2018-03-24T17:50:11.504Z,15.37
2018-03-24T17:52:39.719Z,13.83
2018-03-24T17:55:08.669Z,14.13
2018-03-24T17:57:36.863Z,13.70
2018-03-24T18:00:06.365Z,12.83
2018-03-24T18:02:34.667Z,13.43
2018-03-24T18:05:02.886Z,14.17
2018-03-24T18:07:31.259Z,13.50
2018-03-24T18:10:00.199Z,12.87
2018-03-24T18:12:28.427Z,13.87
2018-03-24T18:14:57.379Z,13.23
2018-03-24T18:17:25.653Z,13.27
2018-03-24T18:19:53.825Z,13.40
2018-03-24T18:22:22.170Z,13.40
2018-03-24T18:24:50.348Z,14.53
2018-03-24T18:27:18.588Z,14.40
2018-03-24T18:29:47.693Z,14.27
2018-03-24T18:32:16.709Z,15.50
2018-03-24T18:34:44.972Z,15.17
2018-03-24T18:37:13.174Z,14.60
2018-03-24T18:39:41.381Z,14.67
2018-03-24T18:42:09.573Z,16.57
2018-03-24T18:44:38.528Z,15.50
2018-03-24T18:47:06.854Z,15.70
2018-03-24T18:49:35.771Z,16.43
2018-03-24T18:52:03.936Z,16.47
2018-03-24T18:54:32.118Z,17.23
2018-03-24T18:57:00.351Z,17.27
2018-03-24T18:59:30.086Z,19.23
2018-03-24T19:01:58.270Z,18.57
2018-03-24T19:04:26.427Z,18.43
2018-03-24T19:06:55.365Z,17.17
2018-03-24T19:09:24.444Z,17.40
2018-03-24T19:11:52.604Z,17.23
2018-03-24T19:14:20.770Z,16.77
2018-03-24T19:16:49.060Z,18.43
2018-03-24T19:19:17.367Z,17.53
2018-03-24T19:21:45.530Z,19.17
2018-03-24T19:24:13.706Z,18.73
2018-03-24T19:26:41.887Z,19.80
2018-03-24T19:29:10.260Z,21.30
2018-03-24T19:31:38.512Z,21.00
2018-03-24T19:34:06.763Z,23.17
2018-03-24T19:36:34.947Z,25.37
2018-03-24T19:39:03.118Z,22.87
2018-03-24T19:41:31.894Z,22.47
2018-03-24T19:44:00.821Z,21.83
2018-03-24T19:46:28.984Z,21.27
2018-03-24T19:48:57.174Z,20.97
2018-03-24T19:51:25.555Z,21.43
2018-03-24T19:53:53.718Z,23.30
2018-03-24T19:56:22.002Z,24.17
2018-03-24T19:58:50.183Z,24.20
2018-03-24T20:01:18.406Z,26.83
2018-03-24T20:03:46.554Z,25.33
2018-03-24T20:06:14.807Z,26.40
2018-03-24T20:08:42.979Z,26.63
2018-03-24T20:11:11.124Z,25.03
2018-03-24T20:13:40.070Z,25.40
2018-03-24T20:16:08.215Z,24.97
2018-03-24T20:18:36.377Z,25.73
2018-03-24T20:21:04.643Z,26.10
2018-03-24T20:23:32.913Z,25.27
2018-03-24T20:26:01.819Z,27.33
2018-03-24T20:28:30.095Z,29.83
2018-03-24T20:30:58.448Z,29.47
2018-03-24T20:33:27.368Z,29.53
2018-03-24T20:35:55.529Z,28.87
2018-03-24T20:38:23.777Z,28.00
2018-03-24T20:40:51.935Z,28.57
2018-03-24T20:43:20.689Z,29.17
2018-03-24T20:45:48.941Z,30.03
2018-03-24T20:48:17.135Z,29.33
2018-03-24T20:50:45.373Z,31.13
2018-03-24T20:53:14.300Z,30.40
2018-03-24T20:55:42.562Z,29.77
2018-03-24T20:58:10.726Z,30.10
2018-03-24T21:00:38.923Z,33.23
2018-03-24T21:03:07.063Z,33.07
2018-03-24T21:05:36.006Z,33.63
2018-03-24T21:08:04.289Z,33.73
2018-03-24T21:10:32.593Z,34.53
2018-03-24T21:13:00.761Z,35.40
2018-03-24T21:15:28.921Z,34.67
2018-03-24T21:17:57.189Z,33.27
2018-03-24T21:20:25.345Z,34.97
2018-03-24T21:22:53.526Z,36.07
2018-03-24T21:25:21.681Z,35.43
2018-03-24T21:27:50.205Z,37.07
2018-03-24T21:30:18.930Z,35.77
2018-03-24T21:32:47.101Z,35.67
2018-03-24T21:35:16.027Z,33.73
2018-03-24T21:37:44.168Z,33.57
2018-03-24T21:40:12.305Z,34.30
2018-03-24T21:42:40.716Z,32.60
2018-03-24T21:45:09.647Z,30.60
2018-03-24T21:47:38.085Z,30.83
2018-03-24T21:50:07.303Z,35.43
2018-03-24T21:52:35.470Z,36.17
2018-03-24T21:55:03.887Z,33.93
2018-03-24T21:57:32.214Z,34.30
2018-03-24T22:00:01.115Z,33.63
2018-03-24T22:02:29.306Z,34.17
2018-03-24T22:04:57.595Z,35.40
2018-03-24T22:07:32.657Z,33.13
2018-03-24T22:10:00.924Z,31.47
2018-03-24T22:12:29.080Z,35.47
2018-03-24T22:14:57.523Z,33.37
2018-03-24T22:17:25.764Z,32.10
2018-03-24T22:19:53.940Z,32.10
2018-03-24T22:22:22.348Z,31.33
2018-03-24T22:24:51.297Z,31.17
2018-03-24T22:27:20.365Z,32.27
2018-03-24T22:29:48.523Z,32.37
2018-03-24T22:32:16.909Z,31.20
2018-03-24T22:34:45.076Z,30.70
2018-03-24T22:37:13.233Z,30.53
2018-03-24T22:39:42.218Z,30.27
2018-03-24T22:42:10.319Z,31.20
2018-03-24T22:44:38.503Z,31.73
2018-03-24T22:47:06.666Z,30.30
2018-03-24T22:49:34.821Z,30.20
2018-03-24T22:52:03.494Z,28.93
2018-03-24T22:54:31.654Z,31.27
2018-03-24T22:56:59.996Z,30.53
2018-03-24T22:59:29.097Z,30.07
2018-03-24T23:01:57.249Z,30.17
2018-03-24T23:04:25.930Z,29.83
2018-03-24T23:06:54.106Z,31.40
2018-03-24T23:09:22.293Z,30.83
2018-03-24T23:11:50.442Z,32.40
2018-03-24T23:14:18.604Z,35.33
2018-03-24T23:16:46.882Z,34.53
2018-03-24T23:19:15.922Z,33.73
2018-03-24T23:21:44.110Z,32.40
2018-03-24T23:24:12.366Z,33.10
2018-03-24T23:26:40.510Z,32.33
2018-03-24T23:29:08.874Z,34.43
2018-03-24T23:31:37.812Z,33.90
2018-03-24T23:34:05.974Z,33.27
2018-03-24T23:36:34.140Z,32.50
2018-03-24T23:39:02.499Z,32.60
2018-03-24T23:41:31.483Z,32.47
2018-03-24T23:44:00.547Z,31.93
2018-03-24T23:46:28.721Z,31.33
2018-03-24T23:48:56.875Z,31.50
2018-03-24T23:51:25.037Z,31.50
2018-03-24T23:53:53.220Z,31.30
2018-03-24T23:56:21.556Z,32.10
2018-03-24T23:58:50.485Z,31.10
